sensor_id;sensor_type;location;lat;lon;timestamp;P1;durP1;ratioP1;P2;durP2;ratioP2
16472;SDS011;8347;52.486;13.432;2022-12-08T00:00:00;8.95;;;6.28;;
16472;SDS011;8347;52.486;13.432;2022-12-08T00:02:57;9.18;;;4.95;;
16472;SDS011;8347;52.486;13.432;2022-12-08T00:05:44;14.63;;;5.82;;
16472;SDS011;8347;52.486;13.432;2022-12-08T00:08:50;8.32;;;4.70;;
16472;SDS011;8347;52.486;13.432;2022-12-08T00:14:43;9.55;;;4.38;;
16472;SDS011;8347;52.486;13.432;2022-12-08T00:17:31;7.38;;;4.78;;
16472;SDS011;8347;52.486;13.432;2022-12-08T00:20:17;7.43;;;4.45;;
16472;SDS011;8347;52.486;13.432;2022-12-08T00:23:04;7.35;;;4.47;;
16472;SDS011;8347;52.486;13.432;2022-12-08T00:25:50;9.98;;;4.57;;
16472;SDS011;8347;52.486;13.432;2022-12-08T00:28:36;8.75;;;4.22;;
16472;SDS011;8347;52.486;13.432;2022-12-08T00:31:23;7.10;;;4.55;;
16472;SDS011;8347;52.486;13.432;2022-12-08T00:34:10;10.63;;;4.70;;
16472;SDS011;8347;52.486;13.432;2022-12-08T00:36:57;11.02;;;4.40;;
16472;SDS011;8347;52.486;13.432;2022-12-08T00:39:44;9.90;;;5.03;;
16472;SDS011;8347;52.486;13.432;2022-12-08T00:42:30;11.77;;;4.95;;
16472;SDS011;8347;52.486;13.432;2022-12-08T00:45:17;9.00;;;5.20;;
16472;SDS011;8347;52.486;13.432;2022-12-08T00:48:03;9.07;;;5.10;;
16472;SDS011;8347;52.486;13.432;2022-12-08T00:50:50;9.20;;;4.90;;
16472;SDS011;8347;52.486;13.432;2022-12-08T00:53:37;9.55;;;5.13;;
16472;SDS011;8347;52.486;13.432;2022-12-08T00:56:24;11.18;;;5.05;;
16472;SDS011;8347;52.486;13.432;2022-12-08T00:59:10;9.82;;;5.85;;
16472;SDS011;8347;52.486;13.432;2022-12-08T01:01:57;8.18;;;5.07;;
16472;SDS011;8347;52.486;13.432;2022-12-08T01:04:45;10.35;;;5.75;;
16472;SDS011;8347;52.486;13.432;2022-12-08T01:07:31;12.93;;;5.57;;
16472;SDS011;8347;52.486;13.432;2022-12-08T01:10:18;10.85;;;6.30;;
16472;SDS011;8347;52.486;13.432;2022-12-08T01:13:04;13.00;;;6.35;;
16472;SDS011;8347;52.486;13.432;2022-12-08T01:15:51;9.85;;;6.28;;
16472;SDS011;8347;52.486;13.432;2022-12-08T01:18:38;8.75;;;5.43;;
16472;SDS011;8347;52.486;13.432;2022-12-08T01:21:25;8.18;;;5.53;;
16472;SDS011;8347;52.486;13.432;2022-12-08T01:24:13;12.18;;;7.18;;
16472;SDS011;8347;52.486;13.432;2022-12-08T01:27:01;9.52;;;5.20;;
16472;SDS011;8347;52.486;13.432;2022-12-08T01:29:47;6.10;;;4.55;;
16472;SDS011;8347;52.486;13.432;2022-12-08T01:32:34;8.77;;;5.60;;
16472;SDS011;8347;52.486;13.432;2022-12-08T01:35:20;10.35;;;5.38;;
16472;SDS011;8347;52.486;13.432;2022-12-08T01:38:07;7.60;;;5.22;;
16472;SDS011;8347;52.486;13.432;2022-12-08T01:40:54;9.65;;;5.50;;
16472;SDS011;8347;52.486;13.432;2022-12-08T01:43:44;11.77;;;5.80;;
16472;SDS011;8347;52.486;13.432;2022-12-08T01:46:37;8.30;;;5.70;;
16472;SDS011;8347;52.486;13.432;2022-12-08T01:49:26;13.25;;;5.85;;
16472;SDS011;8347;52.486;13.432;2022-12-08T01:52:22;12.55;;;5.93;;
16472;SDS011;8347;52.486;13.432;2022-12-08T01:55:16;8.57;;;5.63;;
16472;SDS011;8347;52.486;13.432;2022-12-08T01:58:15;10.48;;;5.45;;
16472;SDS011;8347;52.486;13.432;2022-12-08T02:01:02;9.43;;;6.25;;
16472;SDS011;8347;52.486;13.432;2022-12-08T02:03:50;12.63;;;5.43;;
16472;SDS011;8347;52.486;13.432;2022-12-08T02:06:39;8.70;;;5.60;;
16472;SDS011;8347;52.486;13.432;2022-12-08T02:09:26;12.02;;;6.88;;
16472;SDS011;8347;52.486;13.432;2022-12-08T02:12:12;9.02;;;6.63;;
16472;SDS011;8347;52.486;13.432;2022-12-08T02:14:59;11.95;;;7.63;;
16472;SDS011;8347;52.486;13.432;2022-12-08T02:17:59;10.68;;;6.40;;
16472;SDS011;8347;52.486;13.432;2022-12-08T02:20:50;9.05;;;5.90;;
16472;SDS011;8347;52.486;13.432;2022-12-08T02:23:42;15.95;;;6.80;;
16472;SDS011;8347;52.486;13.432;2022-12-08T02:29:58;11.15;;;6.38;;
16472;SDS011;8347;52.486;13.432;2022-12-08T02:42:01;11.85;;;7.15;;
16472;SDS011;8347;52.486;13.432;2022-12-08T02:44:56;13.85;;;7.25;;
16472;SDS011;8347;52.486;13.432;2022-12-08T02:47:44;12.82;;;6.82;;
16472;SDS011;8347;52.486;13.432;2022-12-08T02:50:31;12.18;;;7.28;;
16472;SDS011;8347;52.486;13.432;2022-12-08T02:53:18;9.25;;;6.43;;
16472;SDS011;8347;52.486;13.432;2022-12-08T02:56:10;13.00;;;6.78;;
16472;SDS011;8347;52.486;13.432;2022-12-08T02:59:08;12.77;;;7.32;;
16472;SDS011;8347;52.486;13.432;2022-12-08T03:02:04;11.88;;;7.18;;
16472;SDS011;8347;52.486;13.432;2022-12-08T03:08:01;11.63;;;7.07;;
16472;SDS011;8347;52.486;13.432;2022-12-08T03:11:10;9.60;;;6.53;;
16472;SDS011;8347;52.486;13.432;2022-12-08T03:14:01;9.10;;;6.05;;
16472;SDS011;8347;52.486;13.432;2022-12-08T03:16:50;12.20;;;7.25;;
16472;SDS011;8347;52.486;13.432;2022-12-08T03:19:40;9.57;;;5.97;;
16472;SDS011;8347;52.486;13.432;2022-12-08T03:22:27;12.63;;;6.00;;
16472;SDS011;8347;52.486;13.432;2022-12-08T03:25:14;10.43;;;5.93;;
16472;SDS011;8347;52.486;13.432;2022-12-08T03:28:03;11.80;;;6.75;;
16472;SDS011;8347;52.486;13.432;2022-12-08T03:30:51;11.15;;;6.97;;
16472;SDS011;8347;52.486;13.432;2022-12-08T03:33:40;10.63;;;5.38;;
16472;SDS011;8347;52.486;13.432;2022-12-08T03:36:27;8.25;;;5.85;;
16472;SDS011;8347;52.486;13.432;2022-12-08T03:39:13;8.52;;;4.90;;
16472;SDS011;8347;52.486;13.432;2022-12-08T03:42:00;9.50;;;5.43;;
16472;SDS011;8347;52.486;13.432;2022-12-08T03:44:46;8.00;;;4.70;;
16472;SDS011;8347;52.486;13.432;2022-12-08T03:47:33;7.85;;;4.75;;
16472;SDS011;8347;52.486;13.432;2022-12-08T03:50:20;7.60;;;4.65;;
16472;SDS011;8347;52.486;13.432;2022-12-08T03:53:06;8.15;;;5.35;;
16472;SDS011;8347;52.486;13.432;2022-12-08T03:55:52;8.93;;;5.90;;
16472;SDS011;8347;52.486;13.432;2022-12-08T03:58:39;10.27;;;6.20;;
16472;SDS011;8347;52.486;13.432;2022-12-08T04:01:26;11.48;;;6.95;;
16472;SDS011;8347;52.486;13.432;2022-12-08T04:04:13;12.80;;;7.43;;
16472;SDS011;8347;52.486;13.432;2022-12-08T04:06:59;12.93;;;7.78;;
16472;SDS011;8347;52.486;13.432;2022-12-08T04:09:46;12.68;;;8.27;;
16472;SDS011;8347;52.486;13.432;2022-12-08T04:12:32;11.23;;;7.57;;
16472;SDS011;8347;52.486;13.432;2022-12-08T04:15:19;11.00;;;7.63;;
16472;SDS011;8347;52.486;13.432;2022-12-08T04:18:05;13.02;;;8.07;;
16472;SDS011;8347;52.486;13.432;2022-12-08T04:20:52;13.00;;;7.55;;
16472;SDS011;8347;52.486;13.432;2022-12-08T04:23:39;13.88;;;7.35;;
16472;SDS011;8347;52.486;13.432;2022-12-08T04:26:25;15.95;;;8.82;;
16472;SDS011;8347;52.486;13.432;2022-12-08T04:29:12;11.63;;;8.32;;
16472;SDS011;8347;52.486;13.432;2022-12-08T04:31:58;14.90;;;9.20;;
16472;SDS011;8347;52.486;13.432;2022-12-08T04:34:45;13.00;;;8.60;;
16472;SDS011;8347;52.486;13.432;2022-12-08T04:37:31;12.30;;;8.32;;
16472;SDS011;8347;52.486;13.432;2022-12-08T04:40:18;15.32;;;9.40;;
16472;SDS011;8347;52.486;13.432;2022-12-08T04:43:05;13.23;;;8.93;;
16472;SDS011;8347;52.486;13.432;2022-12-08T04:45:52;17.15;;;8.98;;
16472;SDS011;8347;52.486;13.432;2022-12-08T04:48:39;15.07;;;9.52;;
16472;SDS011;8347;52.486;13.432;2022-12-08T04:51:25;15.98;;;9.75;;
16472;SDS011;8347;52.486;13.432;2022-12-08T04:54:12;17.08;;;10.82;;
16472;SDS011;8347;52.486;13.432;2022-12-08T04:56:58;20.35;;;11.48;;
16472;SDS011;8347;52.486;13.432;2022-12-08T04:59:45;16.85;;;10.57;;
16472;SDS011;8347;52.486;13.432;2022-12-08T05:02:32;17.85;;;11.00;;
16472;SDS011;8347;52.486;13.432;2022-12-08T05:05:18;17.20;;;10.55;;
16472;SDS011;8347;52.486;13.432;2022-12-08T05:08:05;16.50;;;9.90;;
16472;SDS011;8347;52.486;13.432;2022-12-08T05:10:52;16.30;;;10.50;;
16472;SDS011;8347;52.486;13.432;2022-12-08T05:13:38;18.50;;;10.40;;
16472;SDS011;8347;52.486;13.432;2022-12-08T05:16:25;18.48;;;10.90;;
16472;SDS011;8347;52.486;13.432;2022-12-08T05:19:12;21.13;;;11.82;;
16472;SDS011;8347;52.486;13.432;2022-12-08T05:21:59;21.42;;;11.98;;
16472;SDS011;8347;52.486;13.432;2022-12-08T05:24:45;19.75;;;10.88;;
16472;SDS011;8347;52.486;13.432;2022-12-08T05:27:32;20.10;;;10.98;;
16472;SDS011;8347;52.486;13.432;2022-12-08T05:30:18;25.38;;;12.02;;
16472;SDS011;8347;52.486;13.432;2022-12-08T05:33:05;19.20;;;11.77;;
16472;SDS011;8347;52.486;13.432;2022-12-08T05:35:51;23.23;;;12.13;;
16472;SDS011;8347;52.486;13.432;2022-12-08T05:38:38;27.90;;;13.55;;
16472;SDS011;8347;52.486;13.432;2022-12-08T05:41:25;22.67;;;12.10;;
16472;SDS011;8347;52.486;13.432;2022-12-08T05:44:11;22.50;;;12.00;;
16472;SDS011;8347;52.486;13.432;2022-12-08T05:46:57;17.33;;;10.68;;
16472;SDS011;8347;52.486;13.432;2022-12-08T05:49:44;20.77;;;12.25;;
16472;SDS011;8347;52.486;13.432;2022-12-08T05:52:31;22.05;;;11.23;;
16472;SDS011;8347;52.486;13.432;2022-12-08T05:55:17;23.88;;;12.15;;
16472;SDS011;8347;52.486;13.432;2022-12-08T05:58:05;21.98;;;12.13;;
16472;SDS011;8347;52.486;13.432;2022-12-08T06:00:51;19.77;;;11.45;;
16472;SDS011;8347;52.486;13.432;2022-12-08T06:03:38;23.85;;;11.85;;
16472;SDS011;8347;52.486;13.432;2022-12-08T06:06:25;19.08;;;11.63;;
16472;SDS011;8347;52.486;13.432;2022-12-08T06:09:12;21.52;;;11.55;;
16472;SDS011;8347;52.486;13.432;2022-12-08T06:11:58;20.63;;;11.13;;
16472;SDS011;8347;52.486;13.432;2022-12-08T06:14:45;22.90;;;12.18;;
16472;SDS011;8347;52.486;13.432;2022-12-08T06:17:31;17.25;;;11.30;;
16472;SDS011;8347;52.486;13.432;2022-12-08T06:20:17;20.77;;;12.05;;
16472;SDS011;8347;52.486;13.432;2022-12-08T06:23:04;18.50;;;10.77;;
16472;SDS011;8347;52.486;13.432;2022-12-08T06:25:51;17.70;;;10.80;;
16472;SDS011;8347;52.486;13.432;2022-12-08T06:28:37;20.75;;;10.88;;
16472;SDS011;8347;52.486;13.432;2022-12-08T06:31:24;20.13;;;11.57;;
16472;SDS011;8347;52.486;13.432;2022-12-08T06:34:11;19.95;;;11.48;;
16472;SDS011;8347;52.486;13.432;2022-12-08T06:36:58;21.65;;;11.75;;
16472;SDS011;8347;52.486;13.432;2022-12-08T06:39:44;21.20;;;12.05;;
16472;SDS011;8347;52.486;13.432;2022-12-08T06:42:31;25.27;;;12.57;;
16472;SDS011;8347;52.486;13.432;2022-12-08T06:45:31;20.17;;;11.73;;
16472;SDS011;8347;52.486;13.432;2022-12-08T06:48:17;19.00;;;11.60;;
16472;SDS011;8347;52.486;13.432;2022-12-08T06:51:05;22.50;;;11.43;;
16472;SDS011;8347;52.486;13.432;2022-12-08T06:53:52;24.60;;;12.00;;
16472;SDS011;8347;52.486;13.432;2022-12-08T06:56:38;22.77;;;11.50;;
16472;SDS011;8347;52.486;13.432;2022-12-08T06:59:25;18.55;;;11.48;;
16472;SDS011;8347;52.486;13.432;2022-12-08T07:02:12;21.08;;;11.45;;
16472;SDS011;8347;52.486;13.432;2022-12-08T07:04:58;18.55;;;11.23;;
16472;SDS011;8347;52.486;13.432;2022-12-08T07:07:45;18.70;;;11.75;;
16472;SDS011;8347;52.486;13.432;2022-12-08T07:10:32;18.20;;;10.90;;
16472;SDS011;8347;52.486;13.432;2022-12-08T07:13:18;29.08;;;12.23;;
16472;SDS011;8347;52.486;13.432;2022-12-08T07:16:06;20.55;;;11.88;;
16472;SDS011;8347;52.486;13.432;2022-12-08T07:18:52;20.67;;;12.52;;
16472;SDS011;8347;52.486;13.432;2022-12-08T07:21:39;20.98;;;10.63;;
16472;SDS011;8347;52.486;13.432;2022-12-08T07:24:26;21.30;;;12.27;;
16472;SDS011;8347;52.486;13.432;2022-12-08T07:27:12;17.00;;;11.20;;
16472;SDS011;8347;52.486;13.432;2022-12-08T07:29:59;21.80;;;10.88;;
16472;SDS011;8347;52.486;13.432;2022-12-08T07:32:45;21.38;;;10.90;;
16472;SDS011;8347;52.486;13.432;2022-12-08T07:35:32;21.23;;;11.45;;
16472;SDS011;8347;52.486;13.432;2022-12-08T07:38:19;19.65;;;10.73;;
16472;SDS011;8347;52.486;13.432;2022-12-08T07:41:09;14.85;;;9.75;;
16472;SDS011;8347;52.486;13.432;2022-12-08T07:43:56;19.13;;;10.45;;
16472;SDS011;8347;52.486;13.432;2022-12-08T07:46:43;21.70;;;12.00;;
16472;SDS011;8347;52.486;13.432;2022-12-08T07:49:29;21.95;;;12.85;;
16472;SDS011;8347;52.486;13.432;2022-12-08T07:52:16;19.55;;;11.60;;
16472;SDS011;8347;52.486;13.432;2022-12-08T07:55:02;18.88;;;11.98;;
16472;SDS011;8347;52.486;13.432;2022-12-08T07:57:49;23.60;;;11.75;;
16472;SDS011;8347;52.486;13.432;2022-12-08T08:00:36;22.02;;;12.70;;
16472;SDS011;8347;52.486;13.432;2022-12-08T08:03:23;21.35;;;11.85;;
16472;SDS011;8347;52.486;13.432;2022-12-08T08:06:09;21.00;;;12.55;;
16472;SDS011;8347;52.486;13.432;2022-12-08T08:08:56;20.00;;;11.77;;
16472;SDS011;8347;52.486;13.432;2022-12-08T08:11:42;22.08;;;10.75;;
16472;SDS011;8347;52.486;13.432;2022-12-08T08:14:29;21.98;;;11.75;;
16472;SDS011;8347;52.486;13.432;2022-12-08T08:17:15;23.83;;;12.85;;
16472;SDS011;8347;52.486;13.432;2022-12-08T08:20:03;24.52;;;12.35;;
16472;SDS011;8347;52.486;13.432;2022-12-08T08:22:51;22.38;;;11.73;;
16472;SDS011;8347;52.486;13.432;2022-12-08T08:25:38;27.33;;;11.27;;
16472;SDS011;8347;52.486;13.432;2022-12-08T08:28:25;21.55;;;11.05;;
16472;SDS011;8347;52.486;13.432;2022-12-08T08:31:11;25.25;;;11.55;;
16472;SDS011;8347;52.486;13.432;2022-12-08T08:33:58;25.38;;;12.60;;
16472;SDS011;8347;52.486;13.432;2022-12-08T08:36:49;20.65;;;12.20;;
16472;SDS011;8347;52.486;13.432;2022-12-08T08:39:36;23.02;;;12.57;;
16472;SDS011;8347;52.486;13.432;2022-12-08T08:42:22;23.60;;;12.30;;
16472;SDS011;8347;52.486;13.432;2022-12-08T08:45:09;30.17;;;14.52;;
16472;SDS011;8347;52.486;13.432;2022-12-08T08:47:56;27.42;;;13.32;;
16472;SDS011;8347;52.486;13.432;2022-12-08T08:50:43;24.55;;;12.82;;
16472;SDS011;8347;52.486;13.432;2022-12-08T08:53:29;22.58;;;11.80;;
16472;SDS011;8347;52.486;13.432;2022-12-08T08:56:16;34.42;;;15.50;;
16472;SDS011;8347;52.486;13.432;2022-12-08T08:59:06;27.15;;;13.45;;
16472;SDS011;8347;52.486;13.432;2022-12-08T09:01:53;32.97;;;15.27;;
16472;SDS011;8347;52.486;13.432;2022-12-08T09:04:40;29.70;;;15.18;;
16472;SDS011;8347;52.486;13.432;2022-12-08T09:07:26;34.45;;;14.48;;
16472;SDS011;8347;52.486;13.432;2022-12-08T09:10:13;29.55;;;13.10;;
16472;SDS011;8347;52.486;13.432;2022-12-08T09:13:00;27.77;;;15.00;;
16472;SDS011;8347;52.486;13.432;2022-12-08T09:15:46;25.42;;;14.05;;
16472;SDS011;8347;52.486;13.432;2022-12-08T09:18:33;31.77;;;14.10;;
16472;SDS011;8347;52.486;13.432;2022-12-08T09:21:21;28.52;;;12.88;;
16472;SDS011;8347;52.486;13.432;2022-12-08T09:24:08;27.90;;;13.55;;
16472;SDS011;8347;52.486;13.432;2022-12-08T09:27:00;27.95;;;13.38;;
16472;SDS011;8347;52.486;13.432;2022-12-08T09:29:46;23.80;;;14.38;;
16472;SDS011;8347;52.486;13.432;2022-12-08T09:32:33;24.52;;;13.88;;
16472;SDS011;8347;52.486;13.432;2022-12-08T09:35:19;25.48;;;14.57;;
16472;SDS011;8347;52.486;13.432;2022-12-08T09:38:06;26.70;;;13.82;;
16472;SDS011;8347;52.486;13.432;2022-12-08T09:40:52;27.08;;;15.25;;
16472;SDS011;8347;52.486;13.432;2022-12-08T09:43:50;25.05;;;13.13;;
16472;SDS011;8347;52.486;13.432;2022-12-08T09:46:39;29.48;;;14.65;;
16472;SDS011;8347;52.486;13.432;2022-12-08T09:49:32;27.65;;;14.73;;
16472;SDS011;8347;52.486;13.432;2022-12-08T09:52:25;29.42;;;14.75;;
16472;SDS011;8347;52.486;13.432;2022-12-08T09:55:16;28.00;;;14.00;;
16472;SDS011;8347;52.486;13.432;2022-12-08T09:58:05;27.98;;;14.55;;
16472;SDS011;8347;52.486;13.432;2022-12-08T10:01:15;24.13;;;12.95;;
16472;SDS011;8347;52.486;13.432;2022-12-08T10:04:02;28.30;;;15.38;;
16472;SDS011;8347;52.486;13.432;2022-12-08T10:06:55;25.75;;;14.57;;
16472;SDS011;8347;52.486;13.432;2022-12-08T10:12:43;25.70;;;15.02;;
16472;SDS011;8347;52.486;13.432;2022-12-08T10:18:37;25.90;;;13.93;;
16472;SDS011;8347;52.486;13.432;2022-12-08T10:21:24;25.15;;;13.80;;
16472;SDS011;8347;52.486;13.432;2022-12-08T10:24:35;26.27;;;14.48;;
16472;SDS011;8347;52.486;13.432;2022-12-08T10:27:22;23.75;;;14.15;;
16472;SDS011;8347;52.486;13.432;2022-12-08T10:30:10;24.90;;;14.40;;
16472;SDS011;8347;52.486;13.432;2022-12-08T10:32:57;23.58;;;13.35;;
16472;SDS011;8347;52.486;13.432;2022-12-08T10:35:46;23.05;;;13.23;;
16472;SDS011;8347;52.486;13.432;2022-12-08T10:38:34;29.02;;;14.00;;
16472;SDS011;8347;52.486;13.432;2022-12-08T10:41:21;25.85;;;14.02;;
16472;SDS011;8347;52.486;13.432;2022-12-08T10:44:09;24.60;;;12.88;;
16472;SDS011;8347;52.486;13.432;2022-12-08T10:46:57;28.35;;;13.43;;
16472;SDS011;8347;52.486;13.432;2022-12-08T10:49:43;24.30;;;13.52;;
16472;SDS011;8347;52.486;13.432;2022-12-08T10:52:30;24.17;;;13.10;;
16472;SDS011;8347;52.486;13.432;2022-12-08T10:55:17;25.17;;;13.73;;
16472;SDS011;8347;52.486;13.432;2022-12-08T10:58:04;26.35;;;13.55;;
16472;SDS011;8347;52.486;13.432;2022-12-08T11:00:52;25.67;;;11.70;;
16472;SDS011;8347;52.486;13.432;2022-12-08T11:06:34;23.48;;;12.63;;
16472;SDS011;8347;52.486;13.432;2022-12-08T11:09:22;24.02;;;12.15;;
16472;SDS011;8347;52.486;13.432;2022-12-08T11:15:00;25.23;;;12.13;;
16472;SDS011;8347;52.486;13.432;2022-12-08T11:17:48;24.48;;;12.43;;
16472;SDS011;8347;52.486;13.432;2022-12-08T11:20:45;20.63;;;12.20;;
16472;SDS011;8347;52.486;13.432;2022-12-08T11:23:33;23.75;;;12.60;;
16472;SDS011;8347;52.486;13.432;2022-12-08T11:26:28;20.15;;;12.20;;
16472;SDS011;8347;52.486;13.432;2022-12-08T11:29:17;22.48;;;11.73;;
16472;SDS011;8347;52.486;13.432;2022-12-08T11:32:13;18.77;;;11.23;;
16472;SDS011;8347;52.486;13.432;2022-12-08T11:35:03;22.52;;;13.00;;
16472;SDS011;8347;52.486;13.432;2022-12-08T11:37:52;20.25;;;10.57;;
16472;SDS011;8347;52.486;13.432;2022-12-08T11:40:42;18.05;;;11.07;;
16472;SDS011;8347;52.486;13.432;2022-12-08T11:46:25;22.63;;;12.05;;
16472;SDS011;8347;52.486;13.432;2022-12-08T11:49:13;24.65;;;12.77;;
16472;SDS011;8347;52.486;13.432;2022-12-08T11:55:21;20.25;;;11.23;;
16472;SDS011;8347;52.486;13.432;2022-12-08T12:01:01;17.20;;;10.63;;
16472;SDS011;8347;52.486;13.432;2022-12-08T12:03:50;21.02;;;12.05;;
16472;SDS011;8347;52.486;13.432;2022-12-08T12:09:35;21.42;;;11.57;;
16472;SDS011;8347;52.486;13.432;2022-12-08T12:12:56;19.00;;;11.85;;
16472;SDS011;8347;52.486;13.432;2022-12-08T12:18:45;21.58;;;12.05;;
16472;SDS011;8347;52.486;13.432;2022-12-08T12:21:40;19.90;;;11.40;;
16472;SDS011;8347;52.486;13.432;2022-12-08T12:24:32;18.90;;;11.98;;
16472;SDS011;8347;52.486;13.432;2022-12-08T12:27:21;17.05;;;10.57;;
16472;SDS011;8347;52.486;13.432;2022-12-08T12:30:19;16.38;;;9.90;;
16472;SDS011;8347;52.486;13.432;2022-12-08T12:33:06;20.05;;;9.63;;
16472;SDS011;8347;52.486;13.432;2022-12-08T12:35:56;17.95;;;10.75;;
16472;SDS011;8347;52.486;13.432;2022-12-08T12:41:46;16.38;;;10.52;;
16472;SDS011;8347;52.486;13.432;2022-12-08T12:47:43;20.52;;;11.18;;
16472;SDS011;8347;52.486;13.432;2022-12-08T12:56:05;17.20;;;10.85;;
16472;SDS011;8347;52.486;13.432;2022-12-08T12:58:54;20.40;;;11.43;;
16472;SDS011;8347;52.486;13.432;2022-12-08T13:01:45;18.27;;;11.45;;
16472;SDS011;8347;52.486;13.432;2022-12-08T13:04:34;20.17;;;11.48;;
16472;SDS011;8347;52.486;13.432;2022-12-08T13:07:23;20.58;;;12.40;;
16472;SDS011;8347;52.486;13.432;2022-12-08T13:10:15;24.40;;;12.90;;
16472;SDS011;8347;52.486;13.432;2022-12-08T13:13:14;21.83;;;11.65;;
16472;SDS011;8347;52.486;13.432;2022-12-08T13:16:04;23.20;;;12.23;;
16472;SDS011;8347;52.486;13.432;2022-12-08T13:18:51;23.33;;;13.30;;
16472;SDS011;8347;52.486;13.432;2022-12-08T13:21:41;18.33;;;10.98;;
16472;SDS011;8347;52.486;13.432;2022-12-08T13:24:29;20.70;;;12.27;;
16472;SDS011;8347;52.486;13.432;2022-12-08T13:27:34;24.05;;;11.70;;
16472;SDS011;8347;52.486;13.432;2022-12-08T13:30:40;19.98;;;11.60;;
16472;SDS011;8347;52.486;13.432;2022-12-08T13:33:28;20.15;;;12.45;;
16472;SDS011;8347;52.486;13.432;2022-12-08T13:39:09;23.20;;;13.02;;
16472;SDS011;8347;52.486;13.432;2022-12-08T13:42:03;20.85;;;12.45;;
16472;SDS011;8347;52.486;13.432;2022-12-08T13:47:50;22.70;;;12.48;;
16472;SDS011;8347;52.486;13.432;2022-12-08T13:50:43;21.10;;;12.13;;
16472;SDS011;8347;52.486;13.432;2022-12-08T13:53:34;23.45;;;13.45;;
16472;SDS011;8347;52.486;13.432;2022-12-08T13:56:22;22.88;;;13.50;;
16472;SDS011;8347;52.486;13.432;2022-12-08T14:02:16;23.75;;;13.18;;
16472;SDS011;8347;52.486;13.432;2022-12-08T14:05:03;25.60;;;15.15;;
16472;SDS011;8347;52.486;13.432;2022-12-08T14:07:51;31.88;;;16.45;;
16472;SDS011;8347;52.486;13.432;2022-12-08T14:10:38;26.77;;;15.48;;
16472;SDS011;8347;52.486;13.432;2022-12-08T14:13:25;26.20;;;13.95;;
16472;SDS011;8347;52.486;13.432;2022-12-08T14:16:25;26.67;;;13.75;;
16472;SDS011;8347;52.486;13.432;2022-12-08T14:19:18;22.05;;;13.32;;
16472;SDS011;8347;52.486;13.432;2022-12-08T14:24:57;27.80;;;15.43;;
16472;SDS011;8347;52.486;13.432;2022-12-08T14:27:44;30.88;;;15.80;;
16472;SDS011;8347;52.486;13.432;2022-12-08T14:30:31;20.98;;;13.45;;
16472;SDS011;8347;52.486;13.432;2022-12-08T14:33:18;24.20;;;14.20;;
16472;SDS011;8347;52.486;13.432;2022-12-08T14:36:05;32.00;;;16.05;;
16472;SDS011;8347;52.486;13.432;2022-12-08T14:38:53;29.60;;;14.35;;
16472;SDS011;8347;52.486;13.432;2022-12-08T14:41:46;30.13;;;16.73;;
16472;SDS011;8347;52.486;13.432;2022-12-08T14:44:43;30.63;;;15.60;;
16472;SDS011;8347;52.486;13.432;2022-12-08T14:47:31;24.05;;;13.18;;
16472;SDS011;8347;52.486;13.432;2022-12-08T14:53:24;22.63;;;12.70;;
16472;SDS011;8347;52.486;13.432;2022-12-08T14:56:18;18.35;;;11.05;;
16472;SDS011;8347;52.486;13.432;2022-12-08T15:02:09;23.40;;;13.50;;
16472;SDS011;8347;52.486;13.432;2022-12-08T15:05:03;24.90;;;12.82;;
16472;SDS011;8347;52.486;13.432;2022-12-08T15:07:52;22.00;;;12.05;;
16472;SDS011;8347;52.486;13.432;2022-12-08T15:10:41;18.00;;;11.07;;
16472;SDS011;8347;52.486;13.432;2022-12-08T15:13:32;21.02;;;10.77;;
16472;SDS011;8347;52.486;13.432;2022-12-08T15:16:26;19.33;;;11.15;;
16472;SDS011;8347;52.486;13.432;2022-12-08T15:19:18;17.58;;;11.77;;
16472;SDS011;8347;52.486;13.432;2022-12-08T15:22:14;19.15;;;11.82;;
16472;SDS011;8347;52.486;13.432;2022-12-08T15:25:03;19.27;;;11.73;;
16472;SDS011;8347;52.486;13.432;2022-12-08T15:27:50;23.75;;;12.65;;
16472;SDS011;8347;52.486;13.432;2022-12-08T15:30:41;19.98;;;12.30;;
16472;SDS011;8347;52.486;13.432;2022-12-08T15:33:28;22.67;;;11.68;;
16472;SDS011;8347;52.486;13.432;2022-12-08T15:36:14;21.25;;;11.95;;
16472;SDS011;8347;52.486;13.432;2022-12-08T15:39:01;33.75;;;16.30;;
16472;SDS011;8347;52.486;13.432;2022-12-08T15:41:47;30.50;;;16.63;;
16472;SDS011;8347;52.486;13.432;2022-12-08T15:44:34;33.35;;;17.08;;
16472;SDS011;8347;52.486;13.432;2022-12-08T15:47:21;30.52;;;15.43;;
16472;SDS011;8347;52.486;13.432;2022-12-08T15:50:16;31.02;;;15.20;;
16472;SDS011;8347;52.486;13.432;2022-12-08T15:53:03;26.70;;;15.52;;
16472;SDS011;8347;52.486;13.432;2022-12-08T15:55:49;21.60;;;13.05;;
16472;SDS011;8347;52.486;13.432;2022-12-08T15:58:36;24.02;;;13.68;;
16472;SDS011;8347;52.486;13.432;2022-12-08T16:01:23;20.00;;;11.77;;
16472;SDS011;8347;52.486;13.432;2022-12-08T16:04:13;18.60;;;10.82;;
16472;SDS011;8347;52.486;13.432;2022-12-08T16:07:01;18.30;;;11.43;;
16472;SDS011;8347;52.486;13.432;2022-12-08T16:09:49;18.55;;;11.60;;
16472;SDS011;8347;52.486;13.432;2022-12-08T16:12:36;19.08;;;10.48;;
16472;SDS011;8347;52.486;13.432;2022-12-08T16:15:41;18.95;;;11.05;;
16472;SDS011;8347;52.486;13.432;2022-12-08T16:18:30;23.52;;;13.52;;
16472;SDS011;8347;52.486;13.432;2022-12-08T16:21:18;23.83;;;13.57;;
16472;SDS011;8347;52.486;13.432;2022-12-08T16:24:04;20.23;;;13.05;;
16472;SDS011;8347;52.486;13.432;2022-12-08T16:26:51;21.20;;;13.30;;
16472;SDS011;8347;52.486;13.432;2022-12-08T16:29:38;20.15;;;12.40;;
16472;SDS011;8347;52.486;13.432;2022-12-08T16:32:31;21.00;;;12.65;;
16472;SDS011;8347;52.486;13.432;2022-12-08T16:35:18;27.08;;;14.70;;
16472;SDS011;8347;52.486;13.432;2022-12-08T16:38:04;22.92;;;14.30;;
16472;SDS011;8347;52.486;13.432;2022-12-08T16:40:51;38.03;;;17.63;;
16472;SDS011;8347;52.486;13.432;2022-12-08T16:44:04;37.95;;;19.10;;
16472;SDS011;8347;52.486;13.432;2022-12-08T16:46:51;32.13;;;17.38;;
16472;SDS011;8347;52.486;13.432;2022-12-08T16:49:37;33.70;;;17.35;;
16472;SDS011;8347;52.486;13.432;2022-12-08T16:52:23;31.08;;;17.38;;
16472;SDS011;8347;52.486;13.432;2022-12-08T16:55:11;30.75;;;16.40;;
16472;SDS011;8347;52.486;13.432;2022-12-08T16:57:58;29.52;;;15.93;;
16472;SDS011;8347;52.486;13.432;2022-12-08T17:00:45;31.85;;;16.98;;
16472;SDS011;8347;52.486;13.432;2022-12-08T17:03:31;37.35;;;18.30;;
16472;SDS011;8347;52.486;13.432;2022-12-08T17:06:19;37.30;;;19.30;;
16472;SDS011;8347;52.486;13.432;2022-12-08T17:09:05;26.15;;;15.65;;
16472;SDS011;8347;52.486;13.432;2022-12-08T17:11:52;23.67;;;12.98;;
16472;SDS011;8347;52.486;13.432;2022-12-08T17:14:39;19.23;;;11.50;;
16472;SDS011;8347;52.486;13.432;2022-12-08T17:17:25;24.10;;;13.05;;
16472;SDS011;8347;52.486;13.432;2022-12-08T17:20:14;22.70;;;12.13;;
16472;SDS011;8347;52.486;13.432;2022-12-08T17:23:01;18.00;;;11.88;;
16472;SDS011;8347;52.486;13.432;2022-12-08T17:26:00;19.85;;;13.25;;
16472;SDS011;8347;52.486;13.432;2022-12-08T17:28:47;27.20;;;13.85;;
16472;SDS011;8347;52.486;13.432;2022-12-08T17:31:33;20.02;;;11.60;;
16472;SDS011;8347;52.486;13.432;2022-12-08T17:34:20;19.35;;;12.65;;
16472;SDS011;8347;52.486;13.432;2022-12-08T17:37:06;21.15;;;13.73;;
16472;SDS011;8347;52.486;13.432;2022-12-08T17:39:53;26.70;;;13.18;;
16472;SDS011;8347;52.486;13.432;2022-12-08T17:42:40;18.60;;;12.70;;
16472;SDS011;8347;52.486;13.432;2022-12-08T17:45:27;19.42;;;12.65;;